Time;durP1;ratioP1;P1;durP2;ratioP2;P2;SDS_P1;SDS_P2;PMS_P1;PMS_P2;Temp;Humidity;BMP_temperature;BMP_pressure;BME280_temperature;BME280_humidity;BME280_pressure;Samples;Min_cycle;Max_cycle;Signal;HPM_P1;HPM_P2
2022/01/21 00:01:08;;;;;;;118.53;58.13;;;2.40;99.90;;;;;;5052947;28;20025;-77
2022/01/21 00:03:35;;;;;;;99.75;50.28;;;2.40;99.90;;;;;;5050707;28;20036;-76
2022/01/21 00:06:01;;;;;;;91.72;47.67;;;2.40;99.90;;;;;;5052934;28;20025;-78
2022/01/21 00:08:27;;;;;;;80.90;38.45;;;2.40;99.90;;;;;;5053118;28;20411;-76
2022/01/21 00:10:53;;;;;;;64.50;31.88;;;2.30;99.90;;;;;;5050024;28;20021;-77
2022/01/21 00:13:33;;;;;;;109.95;49.05;;;2.30;99.90;;;;;;5052659;28;20384;-77
2022/01/21 00:16:03;;;;;;;102.90;43.78;;;2.30;99.90;;;;;;5050164;28;20064;-77
2022/01/21 00:18:29;;;;;;;90.40;38.65;;;2.30;99.90;;;;;;5051712;28;20025;-77
2022/01/21 00:31:52;;;;;;;51.33;23.90;;;2.20;99.90;;;;;;5055875;28;20074;-77
2022/01/21 00:34:18;;;;;;;60.88;27.55;;;2.20;99.90;;;;;;5055940;28;20035;-78
2022/01/21 00:36:44;;;;;;;58.40;26.63;;;2.10;99.90;;;;;;5055919;28;20383;-78
2022/01/21 00:39:11;;;;;;;56.00;25.88;;;2.10;99.90;;;;;;5055806;28;20021;-77
2022/01/21 00:41:43;;;;;;;53.00;23.40;;;2.10;99.90;;;;;;5055916;28;20021;-77
2022/01/21 00:44:09;;;;;;;46.67;22.17;;;2.10;99.90;;;;;;5055926;28;20025;-76
2022/01/21 00:46:34;;;;;;;48.40;22.30;;;2.10;99.90;;;;;;5055444;28;20036;-76
2022/01/21 00:49:01;;;;;;;41.97;20.05;;;2.10;99.90;;;;;;5055621;28;20068;-77
2022/01/21 00:51:28;;;;;;;37.80;18.50;;;2.10;99.90;;;;;;5056137;28;20104;-76
2022/01/21 00:53:54;;;;;;;31.67;15.68;;;2.00;99.90;;;;;;5055313;28;20021;-76
2022/01/21 00:56:20;;;;;;;27.33;13.73;;;2.00;99.90;;;;;;5055667;28;20083;-77
2022/01/21 00:58:45;;;;;;;24.73;12.13;;;2.00;99.90;;;;;;5055818;28;20025;-76
2022/01/21 01:01:12;;;;;;;29.52;13.00;;;2.00;99.90;;;;;;5055137;28;20021;-77
2022/01/21 01:03:38;;;;;;;30.20;12.77;;;2.00;99.90;;;;;;5054125;28;20045;-77
2022/01/21 01:06:04;;;;;;;30.80;15.48;;;1.90;99.90;;;;;;5055639;28;20119;-77
2022/01/21 01:08:30;;;;;;;40.53;17.65;;;1.90;99.90;;;;;;5055243;28;20027;-77
2022/01/21 01:21:48;;;;;;;31.52;14.68;;;1.90;99.90;;;;;;5053530;28;20027;-77
2022/01/21 01:29:43;;;;;;;40.38;18.38;;;1.80;99.90;;;;;;5053425;28;20044;-77
2022/01/21 01:32:09;;;;;;;86.72;33.00;;;1.80;99.90;;;;;;5054951;28;20468;-77
2022/01/21 01:34:35;;;;;;;88.70;34.13;;;1.80;99.90;;;;;;5055052;28;20100;-76
2022/01/21 01:37:07;;;;;;;65.97;26.42;;;1.80;99.90;;;;;;5054339;28;20083;-76
2022/01/21 01:39:40;;;;;;;61.20;21.95;;;1.80;99.90;;;;;;5054806;28;20470;-76
2022/01/21 01:50:35;;;;;;;42.50;19.42;;;1.70;99.90;;;;;;5049569;28;20028;-77
2022/01/21 01:53:01;;;;;;;37.45;18.42;;;1.70;99.90;;;;;;5051976;28;20112;-77
2022/01/21 01:55:27;;;;;;;43.78;17.52;;;1.70;99.90;;;;;;5052193;28;20119;-77
2022/01/21 01:57:53;;;;;;;37.55;16.63;;;1.70;99.90;;;;;;5051908;28;20025;-77
2022/01/21 02:00:19;;;;;;;31.13;14.52;;;1.70;99.90;;;;;;5052115;28;20538;-77
2022/01/21 02:02:45;;;;;;;39.72;17.25;;;1.70;99.90;;;;;;5051902;28;20041;-76
2022/01/21 02:05:10;;;;;;;28.30;13.50;;;1.70;99.90;;;;;;5051925;28;20395;-76
2022/01/21 02:07:36;;;;;;;27.40;13.50;;;1.70;99.90;;;;;;5051937;28;20078;-77
2022/01/21 02:10:04;;;;;;;28.95;13.73;;;1.70;99.90;;;;;;5051701;28;20037;-77
2022/01/21 02:12:30;;;;;;;25.98;13.23;;;1.70;99.90;;;;;;5051871;28;20029;-76
2022/01/21 02:14:59;;;;;;;26.95;13.57;;;1.70;99.90;;;;;;5051920;28;20041;-76
2022/01/21 02:22:43;;;;;;;26.90;13.52;;;1.70;99.90;;;;;;5052087;28;20067;-76
2022/01/21 02:25:17;;;;;;;29.38;13.02;;;1.70;99.90;;;;;;5053694;28;20021;-76
2022/01/21 02:27:49;;;;;;;30.70;14.35;;;1.70;99.90;;;;;;5052097;28;20028;-77
2022/01/21 02:30:20;;;;;;;27.85;14.35;;;1.70;99.90;;;;;;5051294;28;20104;-77
2022/01/21 02:32:52;;;;;;;28.07;11.40;;;1.70;99.90;;;;;;5053876;28;20035;-77
2022/01/21 02:35:19;;;;;;;23.77;11.52;;;1.70;99.90;;;;;;5051461;28;20029;-76
2022/01/21 02:37:45;;;;;;;25.10;11.25;;;1.70;99.90;;;;;;5053365;28;20056;-76
2022/01/21 02:40:12;;;;;;;26.85;11.52;;;1.70;99.90;;;;;;5053552;28;20033;-77
2022/01/21 02:42:38;;;;;;;25.92;11.18;;;1.70;99.90;;;;;;5053437;28;20099;-76
2022/01/21 02:45:07;;;;;;;21.73;11.30;;;1.70;99.90;;;;;;5053281;28;20081;-76
2022/01/21 02:47:33;;;;;;;42.10;17.38;;;1.70;99.90;;;;;;5053289;28;20021;-76
2022/01/21 02:49:59;;;;;;;33.17;13.15;;;1.70;99.90;;;;;;5053548;28;20028;-77
2022/01/21 02:52:28;;;;;;;28.25;10.52;;;1.70;99.90;;;;;;5052987;28;20025;-76
2022/01/21 02:54:54;;;;;;;19.33;9.15;;;1.70;99.90;;;;;;5053473;28;20017;-76
2022/01/21 02:57:20;;;;;;;23.60;10.40;;;1.70;99.90;;;;;;5053436;28;20028;-76
2022/01/21 02:59:46;;;;;;;29.45;13.48;;;1.70;99.90;;;;;;5053024;28;20021;-76
2022/01/21 03:02:14;;;;;;;20.83;9.45;;;1.70;99.90;;;;;;5052889;28;20133;-76
2022/01/21 03:04:58;;;;;;;26.83;12.65;;;1.70;99.90;;;;;;5053562;28;20028;-76
2022/01/21 03:07:23;;;;;;;32.78;12.43;;;1.70;99.90;;;;;;5051610;28;20088;-76
2022/01/21 03:09:49;;;;;;;22.27;10.18;;;1.70;99.90;;;;;;5053193;28;20765;-76
2022/01/21 03:12:15;;;;;;;21.73;10.52;;;1.70;99.90;;;;;;5052976;28;20431;-76
2022/01/21 03:14:41;;;;;;;27.27;11.95;;;1.70;99.90;;;;;;5052684;28;20438;-75
2022/01/21 03:17:06;;;;;;;36.38;15.60;;;1.70;99.90;;;;;;5052975;28;20115;-77
2022/01/21 03:19:32;;;;;;;43.65;16.80;;;1.70;99.90;;;;;;5052729;28;20448;-75
2022/01/21 03:21:58;;;;;;;56.00;22.00;;;1.70;99.90;;;;;;5052574;28;20383;-76
2022/01/21 03:24:24;;;;;;;45.65;19.10;;;1.70;99.90;;;;;;5052507;28;20104;-75
2022/01/21 03:26:50;;;;;;;28.83;12.70;;;1.70;99.90;;;;;;5052634;28;20036;-76
2022/01/21 03:29:16;;;;;;;24.70;10.23;;;1.60;99.90;;;;;;5052931;28;20035;-75
2022/01/21 03:31:42;;;;;;;22.60;10.05;;;1.70;99.90;;;;;;5052743;28;20032;-76
2022/01/21 03:34:07;;;;;;;19.92;9.43;;;1.70;99.90;;;;;;5052685;28;20059;-76
2022/01/21 03:36:35;;;;;;;21.48;9.30;;;1.70;99.90;;;;;;5052720;28;20112;-75
2022/01/21 03:39:01;;;;;;;22.38;9.50;;;1.70;99.90;;;;;;5052565;28;20076;-76
2022/01/21 03:41:27;;;;;;;20.67;9.20;;;1.70;99.90;;;;;;5052502;28;20048;-76
2022/01/21 03:43:53;;;;;;;23.70;8.73;;;1.70;99.90;;;;;;5052530;28;20059;-75
2022/01/21 03:46:18;;;;;;;24.25;9.88;;;1.70;99.90;;;;;;5052571;28;20361;-76
2022/01/21 03:48:48;;;;;;;18.60;9.30;;;1.70;99.90;;;;;;5051976;28;20049;-76
2022/01/21 03:51:14;;;;;;;25.95;8.85;;;1.70;99.90;;;;;;5052639;28;20131;-76
2022/01/21 03:53:39;;;;;;;20.45;8.70;;;1.70;99.90;;;;;;5052525;28;20025;-76
2022/01/21 03:56:05;;;;;;;25.02;10.00;;;1.70;99.90;;;;;;5051911;28;20365;-76
2022/01/21 03:58:31;;;;;;;30.83;12.25;;;1.70;99.90;;;;;;5052221;28;20086;-76
2022/01/21 04:00:57;;;;;;;25.83;10.00;;;1.70;99.90;;;;;;5052225;28;20028;-76
2022/01/21 04:03:24;;;;;;;48.92;16.70;;;1.60;99.90;;;;;;5051668;28;20021;-76
2022/01/21 04:05:50;;;;;;;26.38;10.65;;;1.60;99.90;;;;;;5051688;28;20700;-75
2022/01/21 04:08:17;;;;;;;26.83;10.70;;;1.60;99.90;;;;;;5052603;28;20032;-75
2022/01/21 04:10:44;;;;;;;20.25;9.52;;;1.50;99.90;;;;;;5052078;28;20021;-76
2022/01/21 04:13:14;;;;;;;34.30;14.57;;;1.50;99.90;;;;;;5052112;28;20136;-76
2022/01/21 04:15:42;;;;;;;24.27;11.57;;;1.50;99.90;;;;;;5049886;28;20395;-75
2022/01/21 04:18:08;;;;;;;30.42;12.55;;;1.40;99.90;;;;;;5052258;28;20403;-76
2022/01/21 04:20:34;;;;;;;25.63;12.65;;;1.50;99.90;;;;;;5051781;28;20361;-76
2022/01/21 04:23:00;;;;;;;25.75;11.95;;;1.40;99.90;;;;;;5051988;28;20032;-76
2022/01/21 04:25:25;;;;;;;20.17;9.48;;;1.40;99.90;;;;;;5052530;28;20121;-76
2022/01/21 04:27:51;;;;;;;21.30;10.15;;;1.50;99.90;;;;;;5051948;28;20029;-76
2022/01/21 04:30:17;;;;;;;24.50;10.77;;;1.50;99.90;;;;;;5051663;28;20541;-76
2022/01/21 04:32:43;;;;;;;25.52;13.60;;;1.40;99.90;;;;;;5052123;28;20021;-76
2022/01/21 04:35:09;;;;;;;20.02;10.52;;;1.50;99.90;;;;;;5051687;28;20033;-76
2022/01/21 04:37:38;;;;;;;50.55;17.40;;;1.40;99.90;;;;;;5051753;28;20033;-76
2022/01/21 04:40:12;;;;;;;31.27;11.93;;;1.40;99.90;;;;;;5051932;28;20022;-76
2022/01/21 04:48:07;;;;;;;297.42;119.20;;;1.50;99.90;;;;;;5050254;28;20056;-76
2022/01/21 04:50:40;;;;;;;456.33;223.93;;;1.50;99.90;;;;;;5052878;28;20116;-76
2022/01/21 04:53:07;;;;;;;169.63;76.35;;;1.50;99.90;;;;;;5053334;28;20044;-75
2022/01/21 04:55:35;;;;;;;78.97;36.38;;;1.50;99.90;;;;;;5052865;28;20044;-75
2022/01/21 04:58:01;;;;;;;31.55;15.13;;;1.50;99.90;;;;;;5053043;28;20056;-75
2022/01/21 05:00:27;;;;;;;30.55;14.35;;;1.40;99.90;;;;;;5052786;28;20040;-76
2022/01/21 05:02:53;;;;;;;28.92;13.15;;;1.40;99.90;;;;;;5052671;28;20361;-75
2022/01/21 05:05:19;;;;;;;32.72;13.05;;;1.40;99.90;;;;;;5052878;28;20104;-75
2022/01/21 05:07:45;;;;;;;33.30;12.15;;;1.40;99.90;;;;;;5052429;28;20025;-75
2022/01/21 05:10:11;;;;;;;29.95;10.88;;;1.40;99.90;;;;;;5052130;28;20021;-75
2022/01/21 05:12:37;;;;;;;17.52;8.38;;;1.40;99.90;;;;;;5051599;28;20395;-75
2022/01/21 05:15:12;;;;;;;19.85;8.02;;;1.40;99.90;;;;;;5052760;28;20080;-75
2022/01/21 05:17:48;;;;;;;20.92;8.43;;;1.30;99.90;;;;;;5056296;28;20053;-75
2022/01/21 05:20:14;;;;;;;24.20;9.20;;;1.40;99.90;;;;;;5056349;28;20075;-77
2022/01/21 05:22:40;;;;;;;25.98;9.32;;;1.40;99.90;;;;;;5056551;28;20029;-75
2022/01/21 05:25:06;;;;;;;19.95;8.48;;;1.50;99.90;;;;;;5056375;28;20025;-74
2022/01/21 05:27:32;;;;;;;15.13;6.15;;;1.50;99.90;;;;;;5056383;28;20056;-74
2022/01/21 05:29:58;;;;;;;21.02;6.85;;;1.50;99.90;;;;;;5056686;28;20064;-75
2022/01/21 05:32:24;;;;;;;17.05;6.30;;;1.50;99.90;;;;;;5056500;28;20437;-75
2022/01/21 05:34:50;;;;;;;20.67;6.97;;;1.50;99.90;;;;;;5055887;28;20504;-75
2022/01/21 05:37:15;;;;;;;26.48;8.98;;;1.50;99.90;;;;;;5056289;28;20059;-75
2022/01/21 05:39:41;;;;;;;24.27;10.35;;;1.50;99.90;;;;;;5056152;28;20029;-74
2022/01/21 05:42:07;;;;;;;60.95;20.20;;;1.50;99.90;;;;;;5056063;28;20086;-74
2022/01/21 05:47:06;;;;;;;46.85;16.50;;;1.50;99.90;;;;;;5055659;28;20068;-75
2022/01/21 05:49:35;;;;;;;47.95;17.67;;;1.50;99.90;;;;;;5056324;28;20045;-75
2022/01/21 05:52:32;;;;;;;54.53;18.75;;;1.50;99.90;;;;;;5055709;28;20036;-75
2022/01/21 05:54:48;;;;;;;62.88;22.05;;;1.50;99.90;;;;;;5055301;28;20072;-75
2022/01/21 05:57:17;;;;;;;62.25;23.20;;;1.40;99.90;;;;;;5055889;28;20049;-75
2022/01/21 05:59:43;;;;;;;68.70;25.10;;;1.40;99.90;;;;;;5056024;28;20025;-75
2022/01/21 06:02:11;;;;;;;91.18;35.78;;;1.40;99.90;;;;;;5055748;28;20052;-75
2022/01/21 06:04:39;;;;;;;165.77;65.70;;;1.40;99.90;;;;;;5055729;28;20040;-75
2022/01/21 06:07:06;;;;;;;186.27;71.65;;;1.30;99.90;;;;;;5055494;28;20029;-75
2022/01/21 06:09:32;;;;;;;161.93;60.88;;;1.40;99.90;;;;;;5055335;28;20029;-75
2022/01/21 06:11:57;;;;;;;141.77;55.20;;;1.40;99.90;;;;;;5055484;28;20525;-75
2022/01/21 06:14:25;;;;;;;122.28;47.72;;;1.40;99.90;;;;;;5055698;28;20032;-75
2022/01/21 06:16:53;;;;;;;82.05;35.00;;;1.40;99.90;;;;;;5055380;28;20057;-75
2022/01/21 06:19:19;;;;;;;58.97;27.25;;;1.40;99.90;;;;;;5055494;28;20107;-74
2022/01/21 06:21:45;;;;;;;47.92;20.38;;;1.40;99.90;;;;;;5055037;28;20112;-75
2022/01/21 06:24:11;;;;;;;38.97;17.50;;;1.50;99.90;;;;;;5055861;28;20060;-74
2022/01/21 06:26:37;;;;;;;48.97;20.55;;;1.50;99.90;;;;;;5055085;28;20037;-74
2022/01/21 06:29:04;;;;;;;44.53;20.30;;;1.50;99.90;;;;;;5054734;28;20035;-74
2022/01/21 06:31:30;;;;;;;44.90;19.63;;;1.60;99.90;;;;;;5055279;28;20479;-74
2022/01/21 06:33:57;;;;;;;52.13;19.70;;;1.50;99.90;;;;;;5055280;28;20442;-74
2022/01/21 06:36:23;;;;;;;40.05;17.85;;;1.50;99.90;;;;;;5054957;28;20491;-75
2022/01/21 06:38:49;;;;;;;39.83;16.10;;;1.60;99.90;;;;;;5054904;28;20029;-74
2022/01/21 06:41:15;;;;;;;34.80;15.02;;;1.60;99.90;;;;;;5054846;28;20075;-75
2022/01/21 06:43:40;;;;;;;48.38;19.05;;;1.60;99.90;;;;;;5054658;28;20504;-75
2022/01/21 06:46:08;;;;;;;55.72;22.67;;;1.60;99.90;;;;;;5055052;28;20025;-74
2022/01/21 06:48:34;;;;;;;42.85;19.75;;;1.60;99.90;;;;;;5055221;28;20536;-75
2022/01/21 06:51:00;;;;;;;49.03;23.25;;;1.70;99.90;;;;;;5054813;28;20028;-75
2022/01/21 06:53:25;;;;;;;57.92;24.95;;;1.70;99.90;;;;;;5054549;28;20043;-75
2022/01/21 06:55:51;;;;;;;54.80;23.33;;;1.70;99.90;;;;;;5054873;28;20154;-75
2022/01/21 06:58:17;;;;;;;63.75;25.67;;;1.80;99.90;;;;;;5054419;28;20044;-75
2022/01/21 07:00:43;;;;;;;68.93;28.98;;;1.80;99.90;;;;;;5054986;28;20036;-75
2022/01/21 07:03:08;;;;;;;92.22;42.13;;;1.80;99.90;;;;;;5054623;28;20025;-75
2022/01/21 07:05:34;;;;;;;109.03;46.05;;;1.80;99.90;;;;;;5054521;28;20029;-74
2022/01/21 07:08:01;;;;;;;80.85;35.08;;;1.80;99.90;;;;;;5054854;28;20059;-74
2022/01/21 07:10:29;;;;;;;59.53;28.20;;;1.80;99.90;;;;;;5054584;28;20033;-75
2022/01/21 07:12:56;;;;;;;72.65;30.77;;;1.80;99.90;;;;;;5054108;28;20419;-75
2022/01/21 07:15:22;;;;;;;60.72;27.25;;;1.80;99.90;;;;;;5054376;28;20029;-75
2022/01/21 07:17:49;;;;;;;43.80;21.38;;;1.80;99.90;;;;;;5054485;28;20037;-75
2022/01/21 07:20:16;;;;;;;37.40;17.70;;;1.80;99.90;;;;;;5054510;28;20119;-75
2022/01/21 07:22:42;;;;;;;38.15;16.90;;;1.80;99.90;;;;;;5053112;28;20025;-75
2022/01/21 07:25:09;;;;;;;35.03;16.92;;;1.80;99.90;;;;;;5053767;28;20025;-75
2022/01/21 07:27:34;;;;;;;43.58;17.48;;;1.70;99.90;;;;;;5054344;28;20036;-75
2022/01/21 07:30:01;;;;;;;33.03;16.52;;;1.70;99.90;;;;;;5053917;28;20017;-75
2022/01/21 07:32:27;;;;;;;46.95;20.67;;;1.70;99.90;;;;;;5054031;28;20108;-75
2022/01/21 07:34:53;;;;;;;74.40;31.73;;;1.70;99.90;;;;;;5053875;28;20120;-75
2022/01/21 07:37:18;;;;;;;68.82;29.42;;;1.70;99.90;;;;;;5054099;28;20029;-75
2022/01/21 07:39:44;;;;;;;71.95;32.63;;;1.80;99.90;;;;;;5052827;28;20021;-74
2022/01/21 07:42:10;;;;;;;90.75;41.83;;;1.80;99.90;;;;;;5053922;28;20056;-75
2022/01/21 07:44:36;;;;;;;41.30;19.58;;;1.80;99.90;;;;;;5054074;28;20032;-75
2022/01/21 07:47:02;;;;;;;52.85;25.40;;;1.80;99.90;;;;;;5053863;28;20108;-75
2022/01/21 07:49:28;;;;;;;46.25;23.58;;;1.80;99.90;;;;;;5053806;28;20052;-75
2022/01/21 07:51:54;;;;;;;50.70;23.90;;;1.80;99.90;;;;;;5053704;28;20047;-75
2022/01/21 07:54:19;;;;;;;43.88;21.85;;;1.80;99.90;;;;;;5053584;28;20460;-74
2022/01/21 07:56:45;;;;;;;50.13;24.42;;;1.80;99.90;;;;;;5053160;28;20033;-74
2022/01/21 07:59:14;;;;;;;59.13;25.35;;;1.80;99.90;;;;;;5053550;28;20111;-74
2022/01/21 08:01:40;;;;;;;55.10;27.15;;;1.80;99.90;;;;;;5053251;28;20065;-74
2022/01/21 08:04:06;;;;;;;60.67;29.10;;;1.80;99.90;;;;;;5053690;28;20056;-74
2022/01/21 08:06:33;;;;;;;73.65;33.40;;;1.80;99.90;;;;;;5053448;28;20472;-75
2022/01/21 08:08:59;;;;;;;98.80;41.75;;;1.80;99.90;;;;;;5053532;28;20033;-74
2022/01/21 08:11:25;;;;;;;59.75;26.00;;;1.80;99.90;;;;;;5053638;28;20037;-74
2022/01/21 08:13:52;;;;;;;67.70;29.73;;;1.90;99.90;;;;;;5053472;28;20021;-74
2022/01/21 08:16:18;;;;;;;42.60;20.60;;;1.90;99.90;;;;;;5052047;28;20108;-74
2022/01/21 08:18:44;;;;;;;63.22;26.75;;;1.90;99.90;;;;;;5052225;28;20040;-74
2022/01/21 08:21:18;;;;;;;88.47;40.40;;;1.90;99.90;;;;;;5052770;28;20379;-75
2022/01/21 08:23:45;;;;;;;74.50;34.20;;;1.90;99.90;;;;;;5053219;28;20369;-74
2022/01/21 08:26:10;;;;;;;54.05;23.45;;;1.90;99.90;;;;;;5053279;28;20036;-74
2022/01/21 08:28:36;;;;;;;48.50;19.13;;;1.90;99.90;;;;;;5053379;28;20029;-75
2022/01/21 08:31:02;;;;;;;32.08;12.05;;;1.90;99.90;;;;;;5053317;28;20152;-74
2022/01/21 08:33:28;;;;;;;51.03;20.92;;;1.90;99.90;;;;;;5053100;28;20464;-74
2022/01/21 08:35:54;;;;;;;50.40;21.15;;;1.90;99.90;;;;;;5053103;28;20150;-74
2022/01/21 08:38:21;;;;;;;100.32;34.78;;;2.00;99.90;;;;;;5053129;28;20064;-75
2022/01/21 08:40:48;;;;;;;79.25;30.85;;;2.00;99.90;;;;;;5053459;28;20021;-75
2022/01/21 08:43:14;;;;;;;67.35;26.20;;;2.00;99.90;;;;;;5052862;28;20033;-75
2022/01/21 08:45:40;;;;;;;93.97;34.72;;;2.10;99.90;;;;;;5052991;28;20040;-74
2022/01/21 08:48:05;;;;;;;47.97;19.63;;;2.10;99.90;;;;;;5053178;28;20053;-75
2022/01/21 08:50:31;;;;;;;43.35;17.00;;;2.10;99.90;;;;;;5053852;28;20025;-75
2022/01/21 08:53:08;;;;;;;33.55;14.13;;;2.00;99.90;;;;;;5057222;28;20460;-75
2022/01/21 08:55:34;;;;;;;41.78;18.35;;;2.00;99.90;;;;;;5057104;28;20037;-75
2022/01/21 08:58:00;;;;;;;51.33;19.67;;;2.00;99.90;;;;;;5056690;28;20116;-75
2022/01/21 09:00:26;;;;;;;45.70;19.13;;;2.00;99.90;;;;;;5056964;28;20425;-74
2022/01/21 09:02:52;;;;;;;47.35;19.33;;;2.10;99.90;;;;;;5056860;28;20031;-74
2022/01/21 09:05:18;;;;;;;32.00;14.90;;;2.00;99.90;;;;;;5057077;28;20068;-74
2022/01/21 09:07:43;;;;;;;34.75;12.25;;;2.00;99.90;;;;;;5056871;28;20078;-75
2022/01/21 09:10:10;;;;;;;29.67;12.68;;;2.00;99.90;;;;;;5056911;28;20029;-75
2022/01/21 09:12:36;;;;;;;36.40;14.75;;;2.00;99.90;;;;;;5056649;28;20036;-75
2022/01/21 09:15:04;;;;;;;39.05;14.25;;;2.00;99.90;;;;;;5056353;28;20017;-75
2022/01/21 09:17:30;;;;;;;31.02;12.52;;;2.00;99.90;;;;;;5055282;28;20124;-74
2022/01/21 09:19:56;;;;;;;48.60;17.40;;;2.00;99.90;;;;;;5056641;28;20100;-74
2022/01/21 09:22:22;;;;;;;54.42;18.25;;;2.00;99.90;;;;;;5056721;28;20025;-74
2022/01/21 09:24:47;;;;;;;68.78;26.98;;;2.10;99.90;;;;;;5056689;28;20141;-75
2022/01/21 09:27:13;;;;;;;68.53;28.88;;;2.10;99.90;;;;;;5056222;28;20032;-75
2022/01/21 09:29:41;;;;;;;86.82;34.40;;;2.30;99.90;;;;;;5056627;28;20475;-75
2022/01/21 09:32:07;;;;;;;41.60;19.98;;;2.30;99.90;;;;;;5056314;28;20029;-75
2022/01/21 09:34:33;;;;;;;75.03;28.45;;;2.40;99.90;;;;;;5056394;28;20029;-74
2022/01/21 09:37:00;;;;;;;55.88;26.55;;;2.60;99.90;;;;;;5056462;28;20036;-74
2022/01/21 09:39:28;;;;;;;51.97;21.58;;;2.60;99.90;;;;;;5056235;28;20029;-74
2022/01/21 09:41:58;;;;;;;41.20;18.63;;;2.70;99.90;;;;;;5055964;28;20480;-74
2022/01/21 09:44:25;;;;;;;50.03;21.85;;;2.70;99.90;;;;;;5054858;28;20064;-74
2022/01/21 09:46:53;;;;;;;56.45;20.70;;;2.60;99.90;;;;;;5056088;28;20036;-75
2022/01/21 09:49:26;;;;;;;38.13;15.38;;;2.70;99.90;;;;;;5055937;28;20049;-74
2022/01/21 09:52:10;;;;;;;61.75;23.50;;;2.60;99.90;;;;;;5055951;28;20465;-75
2022/01/21 09:54:38;;;;;;;42.53;18.20;;;2.60;99.90;;;;;;5055835;28;20061;-75
2022/01/21 09:57:06;;;;;;;60.28;20.52;;;2.50;99.90;;;;;;5055963;28;20024;-74
2022/01/21 09:59:35;;;;;;;58.10;20.48;;;2.50;99.90;;;;;;5055832;28;20021;-75
2022/01/21 10:02:04;;;;;;;43.85;16.75;;;2.50;99.90;;;;;;5054761;28;20487;-75
2022/01/21 10:04:33;;;;;;;29.30;11.38;;;2.50;99.90;;;;;;5055891;28;20051;-74
2022/01/21 10:07:01;;;;;;;32.38;12.75;;;2.40;99.90;;;;;;5054418;28;20539;-74
2022/01/21 10:09:27;;;;;;;38.10;12.93;;;2.50;99.90;;;;;;5055774;28;20100;-74
2022/01/21 10:11:55;;;;;;;45.17;15.45;;;2.60;99.90;;;;;;5055523;28;20376;-74
2022/01/21 10:14:26;;;;;;;31.00;12.55;;;2.70;99.90;;;;;;5055593;28;20483;-74
2022/01/21 10:16:53;;;;;;;30.42;11.07;;;2.70;99.90;;;;;;5055392;28;20071;-75
2022/01/21 10:19:24;;;;;;;36.38;11.75;;;2.70;99.90;;;;;;5055618;28;20108;-75
2022/01/21 10:21:58;;;;;;;30.37;11.90;;;2.60;99.90;;;;;;5055500;28;20357;-74
2022/01/21 10:24:23;;;;;;;45.38;15.98;;;2.60;99.90;;;;;;5055524;28;20024;-74
2022/01/21 10:26:52;;;;;;;36.17;14.25;;;2.60;99.90;;;;;;5054978;28;20029;-75
2022/01/21 10:29:19;;;;;;;36.03;13.80;;;2.90;99.90;;;;;;5055536;28;20102;-74
2022/01/21 10:31:57;;;;;;;33.33;14.90;;;2.80;99.90;;;;;;5055624;28;20035;-75
2022/01/21 10:34:45;;;;;;;38.80;13.25;;;2.60;99.90;;;;;;5055193;28;20025;-74
2022/01/21 10:37:35;;;;;;;37.00;13.60;;;2.40;99.90;;;;;;5055187;28;20028;-74
2022/01/21 10:40:10;;;;;;;40.88;15.95;;;2.40;99.90;;;;;;5055248;28;20040;-74
2022/01/21 10:42:36;;;;;;;34.88;14.27;;;2.50;99.90;;;;;;5054908;28;20531;-74
2022/01/21 10:45:07;;;;;;;39.42;16.60;;;3.50;99.90;;;;;;5055346;28;20069;-73
2022/01/21 10:47:38;;;;;;;34.80;14.85;;;3.60;99.90;;;;;;5054111;28;20486;-74
2022/01/21 10:50:13;;;;;;;26.90;9.70;;;3.70;99.90;;;;;;5052672;28;20341;-74
2022/01/21 10:52:46;;;;;;;16.48;7.50;;;3.60;99.90;;;;;;5055234;28;20040;-74
2022/01/21 10:55:33;;;;;;;37.17;12.57;;;3.70;99.90;;;;;;5054656;28;20460;-74
2022/01/21 10:58:12;;;;;;;20.33;7.40;;;3.60;99.90;;;;;;5054803;28;20040;-74
2022/01/21 11:00:57;;;;;;;24.63;9.55;;;4.70;99.90;;;;;;5054672;28;20036;-74
2022/01/21 11:03:23;;;;;;;20.08;8.52;;;5.60;99.90;;;;;;5053516;28;20059;-74
2022/01/21 11:05:50;;;;;;;15.68;5.20;;;5.90;99.10;;;;;;5053984;28;20032;-74
2022/01/21 11:08:18;;;;;;;44.45;20.13;;;5.20;98.60;;;;;;5054208;28;20050;-74
2022/01/21 11:10:51;;;;;;;43.00;18.00;;;5.20;99.90;;;;;;5053369;28;20021;-75
2022/01/21 11:13:19;;;;;;;46.40;18.65;;;4.90;99.90;;;;;;5054234;28;20029;-74
2022/01/21 11:15:49;;;;;;;30.70;12.50;;;6.10;99.90;;;;;;5053763;28;20033;-75
2022/01/21 11:18:18;;;;;;;27.98;12.05;;;5.50;97.40;;;;;;5053941;28;20036;-74
2022/01/21 11:20:48;;;;;;;31.85;10.75;;;5.20;95.50;;;;;;5053495;28;20021;-74
2022/01/21 11:23:16;;;;;;;29.17;11.32;;;4.40;97.80;;;;;;5053863;28;20029;-74
2022/01/21 11:26:04;;;;;;;33.03;13.70;;;3.70;99.90;;;;;;5053273;28;20037;-74
2022/01/21 11:28:41;;;;;;;28.73;11.05;;;5.00;99.90;;;;;;5053261;28;20029;-75
2022/01/21 11:31:08;;;;;;;22.83;8.40;;;5.50;95.30;;;;;;5053487;28;20048;-75
2022/01/21 11:33:35;;;;;;;23.50;8.40;;;5.60;94.20;;;;;;5053606;28;20024;-74
2022/01/21 11:36:02;;;;;;;25.42;10.50;;;5.30;93.90;;;;;;5053368;28;20130;-74
2022/01/21 11:38:30;;;;;;;26.15;9.90;;;5.70;92.60;;;;;;5053179;28;20021;-74
2022/01/21 11:40:56;;;;;;;24.05;9.75;;;4.50;94.60;;;;;;5053617;28;20021;-74
2022/01/21 11:43:24;;;;;;;26.27;10.32;;;3.70;95.20;;;;;;5052862;28;20044;-74
2022/01/21 11:48:55;;;;;;;41.22;18.50;;;2.80;98.00;;;;;;5053091;28;20472;-74
2022/01/21 11:51:28;;;;;;;80.63;34.95;;;2.60;99.60;;;;;;5051087;28;20048;-74
2022/01/21 11:53:59;;;;;;;96.65;37.80;;;3.20;98.30;;;;;;5053398;28;20029;-74
2022/01/21 11:56:31;;;;;;;61.67;27.65;;;2.70;97.70;;;;;;5053142;28;20029;-74
2022/01/21 11:59:10;;;;;;;76.88;32.03;;;3.40;99.10;;;;;;5053055;28;20033;-75
2022/01/21 12:01:47;;;;;;;102.63;44.15;;;4.60;97.00;;;;;;5053179;28;20029;-75
2022/01/21 12:04:29;;;;;;;51.45;26.20;;;4.90;92.40;;;;;;5053056;28;20028;-74
2022/01/21 12:06:55;;;;;;;23.92;8.68;;;4.10;94.50;;;;;;5053066;28;20067;-74
2022/01/21 12:09:54;;;;;;;56.60;21.13;;;3.50;94.20;;;;;;5052910;28;20037;-74
2022/01/21 12:12:20;;;;;;;69.05;24.80;;;3.80;93.80;;;;;;5052739;28;20147;-75
2022/01/21 12:14:52;;;;;;;46.33;16.95;;;3.60;93.70;;;;;;5052873;28;20104;-74
2022/01/21 12:17:41;;;;;;;116.13;39.67;;;4.20;94.20;;;;;;5052967;28;20126;-74
2022/01/21 12:20:08;;;;;;;300.08;82.97;;;4.10;94.00;;;;;;5052574;28;20033;-74
2022/01/21 12:22:34;;;;;;;194.27;55.40;;;3.90;95.50;;;;;;5052787;28;20064;-74
2022/01/21 12:25:09;;;;;;;94.45;28.40;;;3.80;96.80;;;;;;5052968;28;20048;-74
2022/01/21 12:27:36;;;;;;;102.10;32.17;;;3.00;92.90;;;;;;5056499;28;20025;-74
2022/01/21 12:30:23;;;;;;;250.07;79.95;;;2.90;96.20;;;;;;5056961;28;20017;-74
2022/01/21 12:33:08;;;;;;;83.05;30.95;;;2.90;99.90;;;;;;5056753;28;20033;-74
2022/01/21 12:35:36;;;;;;;75.07;28.33;;;2.80;99.00;;;;;;5056706;28;20078;-74
2022/01/21 12:40:53;;;;;;;26.83;12.13;;;2.30;91.50;;;;;;5056732;28;20070;-74
2022/01/21 12:43:42;;;;;;;42.38;16.13;;;2.20;92.30;;;;;;5055522;28;20124;-74
2022/01/21 12:46:11;;;;;;;63.20;25.23;;;2.10;92.80;;;;;;5056823;28;20538;-74
2022/01/21 12:48:39;;;;;;;46.25;18.05;;;2.10;91.80;;;;;;5056203;28;20422;-74
2022/01/21 12:51:15;;;;;;;46.67;16.70;;;2.10;91.90;;;;;;5056564;28;20474;-74
2022/01/21 12:56:40;;;;;;;21.30;8.27;;;2.40;91.80;;;;;;5056058;28;20036;-74
2022/01/21 12:59:07;;;;;;;23.42;9.90;;;2.70;93.80;;;;;;5056254;28;20083;-75
2022/01/21 13:01:37;;;;;;;30.40;13.63;;;2.80;93.10;;;;;;5055699;28;20456;-75
2022/01/21 13:04:11;;;;;;;24.50;8.68;;;2.70;91.40;;;;;;5056289;28;20017;-74
2022/01/21 13:06:49;;;;;;;35.72;14.13;;;2.60;90.20;;;;;;5056059;28;20036;-74
2022/01/21 13:09:21;;;;;;;18.70;7.70;;;2.50;90.50;;;;;;5056434;28;20025;-74
2022/01/21 13:12:04;;;;;;;24.15;11.88;;;2.30;88.60;;;;;;5056132;28;20372;-75
2022/01/21 13:17:11;;;;;;;28.58;12.15;;;2.30;89.50;;;;;;5055846;28;20028;-74
2022/01/21 13:19:56;;;;;;;34.63;13.57;;;2.30;90.00;;;;;;5055846;28;20043;-74
2022/01/21 13:22:28;;;;;;;36.58;14.75;;;2.30;90.70;;;;;;5055822;28;20052;-74
2022/01/21 13:25:06;;;;;;;27.23;11.40;;;2.40;91.60;;;;;;5055936;28;20025;-74
2022/01/21 13:27:34;;;;;;;28.42;9.52;;;2.40;90.40;;;;;;5055879;28;20036;-74
2022/01/21 13:30:04;;;;;;;51.22;18.75;;;2.40;87.20;;;;;;5055770;28;20036;-74
2022/01/21 13:32:29;;;;;;;36.58;12.63;;;2.40;87.60;;;;;;5055295;28;20432;-74
2022/01/21 13:35:21;;;;;;;38.05;16.58;;;2.40;85.60;;;;;;5056251;28;20068;-74
2022/01/21 13:38:09;;;;;;;37.42;16.13;;;2.40;83.40;;;;;;5051341;28;20051;-74
2022/01/21 13:40:38;;;;;;;61.92;25.42;;;2.30;85.10;;;;;;5055144;28;20056;-74
2022/01/21 13:43:05;;;;;;;66.43;28.15;;;2.40;87.40;;;;;;5055478;28;20403;-74
2022/01/21 13:45:31;;;;;;;43.35;16.63;;;2.40;87.80;;;;;;5055196;28;20052;-74